Time;durP1;ratioP1;P1;durP2;ratioP2;P2;SDS_P1;SDS_P2;PMS_P1;PMS_P2;Temp;Humidity;BMP_temperature;BMP_pressure;BME280_temperature;BME280_humidity;BME280_pressure;Samples;Min_cycle;Max_cycle;Signal;HPM_P1;HPM_P2
2022/07/01 00:00:49;;;;;;;11.38;8.93;;;18.10;97.30;;;;;;5092985;28;20028;-74
2022/07/01 00:03:15;;;;;;;11.30;10.13;;;18.10;97.20;;;;;;5093395;28;20034;-74
2022/07/01 00:05:40;;;;;;;9.68;8.77;;;18.00;97.20;;;;;;5093319;28;20103;-74
2022/07/01 00:08:06;;;;;;;9.25;8.25;;;18.00;97.10;;;;;;5092897;28;20028;-74
2022/07/01 00:10:31;;;;;;;10.43;9.30;;;18.00;97.20;;;;;;5093269;28;20103;-74
2022/07/01 00:12:57;;;;;;;9.32;8.35;;;18.10;97.20;;;;;;5095890;28;20039;-74
2022/07/01 00:15:23;;;;;;;8.77;7.88;;;18.10;97.10;;;;;;5097320;28;20024;-74
2022/07/01 00:17:49;;;;;;;11.60;10.45;;;18.10;97.10;;;;;;5097012;28;20127;-74
2022/07/01 00:20:15;;;;;;;9.45;8.52;;;18.20;97.00;;;;;;5097503;28;20027;-74
2022/07/01 00:22:41;;;;;;;10.55;9.45;;;18.20;97.00;;;;;;5096959;28;20028;-74
2022/07/01 00:25:07;;;;;;;11.80;10.80;;;18.20;96.90;;;;;;5096842;28;20533;-74
2022/07/01 00:27:36;;;;;;;11.15;10.07;;;18.20;96.90;;;;;;5096903;28;20026;-74
2022/07/01 00:30:01;;;;;;;11.38;10.27;;;18.20;97.00;;;;;;5096793;28;20423;-74
2022/07/01 00:32:27;;;;;;;11.68;10.20;;;18.20;96.90;;;;;;5096794;28;20169;-74
2022/07/01 00:34:53;;;;;;;10.38;9.48;;;18.20;96.80;;;;;;5096805;28;20356;-75
2022/07/01 00:37:18;;;;;;;11.88;10.77;;;18.20;96.80;;;;;;5096803;28;20035;-74
2022/07/01 00:39:44;;;;;;;11.93;10.75;;;18.20;96.90;;;;;;5096387;28;20031;-74
2022/07/01 00:42:10;;;;;;;12.40;11.13;;;18.10;97.00;;;;;;5096694;28;20024;-74
2022/07/01 00:44:36;;;;;;;12.77;11.48;;;18.00;97.10;;;;;;5096408;28;20413;-74
2022/07/01 00:47:03;;;;;;;12.65;11.43;;;17.90;97.30;;;;;;5096305;28;20063;-74
2022/07/01 00:49:30;;;;;;;12.82;11.52;;;17.80;97.40;;;;;;5096644;28;20059;-75
2022/07/01 00:51:56;;;;;;;12.80;11.60;;;17.70;97.50;;;;;;5096183;28;20031;-74
2022/07/01 00:54:21;;;;;;;12.27;11.07;;;17.70;97.70;;;;;;5096537;28;20386;-74
2022/07/01 00:56:48;;;;;;;12.60;11.25;;;17.70;97.90;;;;;;5096415;28;20020;-75
2022/07/01 00:59:14;;;;;;;12.98;11.77;;;17.70;98.00;;;;;;5096395;28;20031;-75
2022/07/01 01:01:40;;;;;;;11.80;10.60;;;17.70;98.00;;;;;;5096364;28;20024;-75
2022/07/01 01:04:06;;;;;;;11.15;10.05;;;17.80;98.00;;;;;;5095830;28;20406;-74
2022/07/01 01:06:33;;;;;;;13.75;12.40;;;17.90;98.00;;;;;;5095962;28;20020;-75
2022/07/01 01:08:58;;;;;;;15.73;13.70;;;17.90;98.00;;;;;;5096144;28;20166;-74
2022/07/01 01:11:24;;;;;;;14.90;13.45;;;17.80;98.20;;;;;;5096098;28;20498;-75
2022/07/01 01:13:50;;;;;;;17.92;15.95;;;17.80;98.40;;;;;;5096043;28;20379;-73
2022/07/01 01:16:18;;;;;;;19.08;17.17;;;17.80;98.40;;;;;;5095835;28;20012;-73
2022/07/01 01:18:43;;;;;;;20.13;18.13;;;17.70;98.30;;;;;;5095915;28;20035;-73
2022/07/01 01:21:09;;;;;;;20.08;17.92;;;17.70;98.40;;;;;;5095721;28;20028;-73
2022/07/01 01:23:35;;;;;;;21.55;19.27;;;17.60;98.70;;;;;;5095526;28;20105;-74
2022/07/01 01:26:02;;;;;;;24.48;21.80;;;17.70;98.80;;;;;;5095693;28;20390;-74
2022/07/01 01:28:28;;;;;;;26.65;23.85;;;17.70;98.90;;;;;;5095845;28;20031;-74
2022/07/01 01:30:54;;;;;;;29.85;26.63;;;17.60;98.90;;;;;;5095241;28;20020;-74
2022/07/01 01:33:19;;;;;;;32.83;27.52;;;17.60;98.90;;;;;;5095583;28;20144;-74
2022/07/01 01:35:45;;;;;;;30.42;27.13;;;17.70;99.00;;;;;;5095436;28;20020;-74
2022/07/01 01:38:10;;;;;;;32.70;28.10;;;17.60;98.90;;;;;;5095281;28;20020;-74
2022/07/01 01:40:36;;;;;;;30.73;26.58;;;17.60;98.70;;;;;;5095381;28;20156;-74
2022/07/01 01:43:02;;;;;;;29.45;26.20;;;17.60;98.70;;;;;;5095326;28;20471;-75
2022/07/01 01:45:28;;;;;;;32.20;28.13;;;17.70;98.70;;;;;;5095134;28;20057;-74
2022/07/01 01:47:53;;;;;;;31.58;28.13;;;17.70;98.60;;;;;;5095462;28;20080;-74
2022/07/01 01:50:19;;;;;;;34.13;29.23;;;17.70;98.50;;;;;;5094893;28;20066;-74
2022/07/01 01:52:45;;;;;;;37.38;30.20;;;17.70;98.40;;;;;;5094882;28;20055;-73
2022/07/01 01:55:11;;;;;;;34.90;29.00;;;17.80;98.50;;;;;;5095293;28;20028;-74
2022/07/01 01:57:37;;;;;;;31.85;28.00;;;17.80;98.30;;;;;;5095007;28;20482;-73
2022/07/01 02:00:07;;;;;;;34.47;30.23;;;17.70;98.30;;;;;;5095163;28;20027;-74
2022/07/01 02:02:36;;;;;;;34.35;30.67;;;17.70;98.00;;;;;;5095254;28;20024;-74
2022/07/01 02:05:06;;;;;;;34.00;30.27;;;17.60;98.30;;;;;;5094909;28;20027;-74
2022/07/01 02:07:32;;;;;;;35.13;31.55;;;17.50;98.40;;;;;;5094587;28;20471;-74
2022/07/01 02:09:58;;;;;;;33.33;29.75;;;17.50;98.30;;;;;;5094966;28;20024;-74
2022/07/01 02:12:23;;;;;;;28.77;25.80;;;17.50;98.30;;;;;;5094826;28;20430;-74
2022/07/01 02:14:49;;;;;;;31.55;27.58;;;17.50;98.30;;;;;;5094606;28;20034;-74
2022/07/01 02:17:14;;;;;;;35.15;28.77;;;17.60;98.30;;;;;;5094375;28;20027;-73
2022/07/01 02:19:40;;;;;;;34.97;29.30;;;17.60;98.20;;;;;;5094623;28;20045;-73
2022/07/01 02:22:05;;;;;;;32.40;28.70;;;17.50;98.10;;;;;;5094688;28;20375;-73
2022/07/01 02:24:31;;;;;;;34.92;31.10;;;17.50;98.20;;;;;;5094734;28;20016;-74
2022/07/01 02:26:56;;;;;;;36.22;30.98;;;17.40;98.10;;;;;;5094665;28;20108;-74
2022/07/01 02:29:22;;;;;;;35.20;31.42;;;17.40;98.20;;;;;;5094449;28;20383;-74
2022/07/01 02:31:47;;;;;;;34.28;30.55;;;17.30;98.10;;;;;;5094600;28;20020;-74
2022/07/01 02:34:13;;;;;;;33.03;29.52;;;17.30;98.20;;;;;;5093810;28;20446;-74
2022/07/01 02:36:39;;;;;;;33.70;30.23;;;17.30;98.30;;;;;;5094142;28;20039;-74
2022/07/01 02:39:04;;;;;;;32.38;28.98;;;17.30;98.40;;;;;;5094551;28;20043;-74
2022/07/01 02:41:30;;;;;;;28.63;25.55;;;17.20;98.20;;;;;;5093883;28;20024;-74
2022/07/01 02:43:56;;;;;;;28.48;25.55;;;17.20;98.10;;;;;;5094410;28;20035;-74
2022/07/01 02:46:21;;;;;;;35.75;30.50;;;17.20;97.90;;;;;;5094209;28;20097;-74
2022/07/01 02:48:47;;;;;;;30.42;26.67;;;17.10;97.90;;;;;;5093848;28;20642;-74
2022/07/01 02:51:12;;;;;;;33.58;27.52;;;17.00;98.10;;;;;;5093827;28;20119;-74
2022/07/01 02:53:38;;;;;;;34.38;28.55;;;17.00;98.20;;;;;;5093889;28;20032;-74
2022/07/01 02:56:04;;;;;;;31.13;27.30;;;16.90;98.20;;;;;;5093792;28;20022;-74
2022/07/01 02:58:29;;;;;;;30.50;25.27;;;16.90;98.30;;;;;;5093851;28;20078;-74
2022/07/01 03:00:55;;;;;;;29.08;26.02;;;16.90;98.30;;;;;;5093935;28;20054;-74
2022/07/01 03:03:20;;;;;;;31.45;24.92;;;17.00;98.30;;;;;;5093945;28;20378;-74
2022/07/01 03:05:47;;;;;;;29.67;25.75;;;17.00;98.10;;;;;;5093465;28;20026;-74
2022/07/01 03:08:13;;;;;;;30.27;27.00;;;17.00;97.90;;;;;;5093715;28;20025;-74
2022/07/01 03:10:39;;;;;;;29.38;25.42;;;17.00;98.00;;;;;;5093868;28;20076;-74
2022/07/01 03:13:05;;;;;;;32.13;27.77;;;16.90;98.50;;;;;;5093684;28;20475;-74
2022/07/01 03:15:30;;;;;;;33.33;28.85;;;16.90;98.30;;;;;;5093470;28;20023;-74
2022/07/01 03:17:56;;;;;;;31.00;25.88;;;16.90;98.60;;;;;;5093872;28;20139;-74
2022/07/01 03:20:21;;;;;;;34.58;28.58;;;16.90;98.80;;;;;;5093768;28;20012;-74
2022/07/01 03:22:47;;;;;;;32.83;27.75;;;16.90;99.00;;;;;;5093766;28;20012;-74
2022/07/01 03:25:13;;;;;;;36.40;29.38;;;17.00;99.20;;;;;;5093605;28;20024;-75
2022/07/01 03:27:44;;;;;;;33.22;28.73;;;17.00;99.00;;;;;;5093423;28;20491;-75
2022/07/01 03:30:12;;;;;;;34.03;28.63;;;17.00;99.00;;;;;;5093749;28;20028;-75
2022/07/01 03:32:38;;;;;;;31.45;27.83;;;17.00;98.90;;;;;;5093131;28;20027;-75
2022/07/01 03:35:35;;;;;;;30.98;27.45;;;17.00;99.20;;;;;;5093251;28;20036;-75
2022/07/01 03:37:50;;;;;;;32.15;27.10;;;17.00;98.80;;;;;;5093286;28;20554;-75
2022/07/01 03:40:15;;;;;;;32.28;27.80;;;17.00;98.80;;;;;;5093457;28;20112;-75
2022/07/01 03:42:41;;;;;;;30.10;25.98;;;16.90;98.80;;;;;;5093417;28;20030;-75
2022/07/01 03:45:07;;;;;;;31.33;25.63;;;17.00;99.00;;;;;;5093219;28;20047;-74
2022/07/01 03:47:32;;;;;;;28.95;25.65;;;17.10;99.10;;;;;;5095472;28;20031;-75
2022/07/01 03:49:58;;;;;;;30.67;27.38;;;17.10;98.80;;;;;;5097290;28;20574;-75
2022/07/01 03:52:24;;;;;;;24.90;22.20;;;17.10;98.50;;;;;;5097468;28;20089;-74
2022/07/01 03:54:49;;;;;;;28.25;25.10;;;17.20;98.40;;;;;;5097322;28;20024;-75
2022/07/01 03:57:15;;;;;;;29.80;26.38;;;17.20;98.30;;;;;;5097360;28;20039;-75
2022/07/01 03:59:40;;;;;;;29.00;25.88;;;17.30;98.20;;;;;;5096924;28;20108;-74
2022/07/01 04:02:07;;;;;;;29.33;25.35;;;17.30;98.20;;;;;;5097210;28;20028;-75
2022/07/01 04:04:33;;;;;;;33.05;27.05;;;17.30;98.20;;;;;;5097407;28;20144;-75
2022/07/01 04:07:01;;;;;;;28.35;24.90;;;17.30;98.20;;;;;;5097479;28;20028;-75
2022/07/01 04:09:28;;;;;;;30.45;26.02;;;17.30;98.30;;;;;;5097449;28;20028;-74
2022/07/01 04:11:54;;;;;;;30.98;26.60;;;17.50;98.10;;;;;;5097200;28;20047;-75
2022/07/01 04:14:20;;;;;;;29.17;25.98;;;17.40;98.10;;;;;;5096860;28;20520;-75
2022/07/01 04:16:47;;;;;;;26.95;24.05;;;17.40;98.10;;;;;;5096930;28;20057;-75
2022/07/01 04:19:14;;;;;;;29.85;25.30;;;17.30;98.10;;;;;;5097241;28;20051;-74
2022/07/01 04:24:24;;;;;;;28.70;24.48;;;17.40;98.40;;;;;;5097176;28;20055;-75
2022/07/01 04:26:51;;;;;;;25.95;22.75;;;17.40;98.40;;;;;;5096948;28;20020;-75
2022/07/01 04:29:17;;;;;;;27.88;23.98;;;17.50;98.40;;;;;;5096676;28;20027;-75
2022/07/01 04:31:42;;;;;;;27.38;23.90;;;17.50;98.20;;;;;;5097011;28;20150;-75
2022/07/01 04:34:09;;;;;;;27.95;23.42;;;17.60;98.20;;;;;;5096600;28;20613;-75
2022/07/01 04:36:35;;;;;;;29.42;24.88;;;17.70;98.20;;;;;;5096569;28;20103;-74
2022/07/01 04:39:02;;;;;;;28.25;23.27;;;17.70;98.20;;;;;;5096594;28;20493;-74
2022/07/01 04:44:12;;;;;;;30.48;24.90;;;17.60;97.90;;;;;;5096429;28;20031;-75
2022/07/01 04:46:38;;;;;;;28.40;23.05;;;17.60;97.90;;;;;;5096318;28;20016;-75
2022/07/01 04:49:04;;;;;;;27.80;22.85;;;17.60;98.10;;;;;;5096140;28;20044;-75
2022/07/01 04:51:29;;;;;;;32.55;24.98;;;17.70;98.00;;;;;;5096212;28;20039;-75
2022/07/01 04:53:55;;;;;;;34.47;26.23;;;17.70;97.70;;;;;;5096129;28;20043;-75
2022/07/01 04:56:21;;;;;;;35.15;26.85;;;17.60;97.70;;;;;;5095930;28;20478;-75
2022/07/01 04:58:47;;;;;;;29.63;23.88;;;17.50;97.80;;;;;;5095883;28;20459;-75
2022/07/01 05:01:12;;;;;;;36.72;26.05;;;17.50;97.90;;;;;;5096361;28;20051;-75
2022/07/01 05:03:38;;;;;;;31.10;25.48;;;17.50;97.90;;;;;;5096038;28;20030;-74
2022/07/01 05:06:04;;;;;;;34.05;24.55;;;17.50;97.90;;;;;;5095832;28;20417;-74
2022/07/01 05:08:30;;;;;;;34.65;24.55;;;17.50;98.00;;;;;;5095992;28;20077;-74
2022/07/01 05:10:55;;;;;;;32.03;24.10;;;17.50;97.80;;;;;;5095797;28;20020;-74
2022/07/01 05:13:21;;;;;;;30.63;22.23;;;17.50;97.70;;;;;;5096079;28;20387;-75
2022/07/01 05:15:47;;;;;;;28.17;22.67;;;17.50;97.70;;;;;;5095506;28;20149;-75
2022/07/01 05:23:41;;;;;;;28.67;21.85;;;17.50;97.70;;;;;;5095436;28;20103;-74
2022/07/01 05:26:06;;;;;;;27.30;22.15;;;17.40;97.50;;;;;;5095834;28;20397;-75
2022/07/01 05:28:32;;;;;;;27.55;20.48;;;17.40;97.50;;;;;;5095615;28;20524;-74
2022/07/01 05:30:58;;;;;;;25.92;21.55;;;17.40;97.50;;;;;;5095771;28;20050;-74
2022/07/01 05:33:26;;;;;;;25.42;20.95;;;17.40;97.50;;;;;;5095279;28;20040;-74
2022/07/01 05:35:52;;;;;;;25.50;20.25;;;17.30;97.60;;;;;;5095497;28;20382;-74
2022/07/01 05:38:18;;;;;;;27.65;21.05;;;17.30;97.50;;;;;;5095475;28;20024;-74
2022/07/01 05:40:44;;;;;;;29.30;20.52;;;17.20;97.30;;;;;;5095369;28;20128;-74
2022/07/01 05:43:10;;;;;;;33.15;21.55;;;17.20;97.40;;;;;;5095052;28;20047;-74
2022/07/01 05:45:35;;;;;;;29.45;19.85;;;17.10;97.40;;;;;;5095177;28;20103;-74
2022/07/01 05:48:01;;;;;;;29.17;21.05;;;17.10;97.30;;;;;;5095117;28;20024;-74
2022/07/01 05:50:27;;;;;;;28.50;21.42;;;17.10;97.30;;;;;;5094572;28;20048;-74
2022/07/01 05:52:52;;;;;;;28.48;21.73;;;17.00;97.40;;;;;;5094813;28;20070;-74
2022/07/01 05:55:18;;;;;;;29.90;21.42;;;17.00;97.60;;;;;;5094898;28;20038;-74
2022/07/01 05:57:43;;;;;;;27.85;21.45;;;17.00;97.70;;;;;;5094943;28;20048;-75
2022/07/01 06:00:09;;;;;;;21.58;16.83;;;17.00;97.70;;;;;;5093308;28;20032;-81
2022/07/01 06:02:35;;;;;;;19.13;14.25;;;17.10;98.10;;;;;;5093498;28;20023;-84
2022/07/01 06:05:02;;;;;;;27.60;18.63;;;17.30;99.00;;;;;;5094233;28;20028;-83
2022/07/01 06:07:28;;;;;;;22.23;17.20;;;17.60;98.20;;;;;;5093454;28;20027;-83
2022/07/01 06:09:54;;;;;;;25.20;19.27;;;17.70;97.70;;;;;;5092424;28;20039;-88
2022/07/01 06:12:20;;;;;;;22.98;18.42;;;17.90;97.40;;;;;;5093551;28;20027;-87
2022/07/01 06:14:45;;;;;;;23.00;16.77;;;17.90;97.10;;;;;;5094580;28;20032;-74
2022/07/01 06:17:12;;;;;;;23.67;18.55;;;18.20;97.30;;;;;;5093998;28;20398;-76
2022/07/01 06:19:38;;;;;;;28.33;20.15;;;18.30;96.40;;;;;;5092411;28;20486;-76
2022/07/01 06:22:05;;;;;;;28.02;20.27;;;18.20;96.10;;;;;;5093446;28;20115;-76
2022/07/01 06:24:30;;;;;;;26.98;20.17;;;18.10;96.10;;;;;;5093334;28;20069;-78
2022/07/01 06:26:56;;;;;;;29.25;19.65;;;18.00;96.20;;;;;;5092268;28;20031;-74
2022/07/01 06:29:22;;;;;;;28.45;20.77;;;17.90;96.40;;;;;;5093854;28;20422;-73
2022/07/01 06:31:47;;;;;;;25.42;18.58;;;17.90;96.60;;;;;;5094393;28;20024;-72
2022/07/01 06:34:13;;;;;;;26.77;21.77;;;17.90;96.70;;;;;;5093835;28;20032;-73
2022/07/01 06:36:38;;;;;;;29.90;19.92;;;17.90;96.60;;;;;;5093815;28;20398;-74
2022/07/01 06:39:04;;;;;;;27.73;20.75;;;17.80;96.60;;;;;;5093490;28;20028;-75
2022/07/01 06:41:30;;;;;;;30.50;21.38;;;17.70;96.50;;;;;;5092750;28;20534;-74
2022/07/01 06:44:00;;;;;;;27.13;20.75;;;17.50;96.70;;;;;;5092332;28;20028;-75
2022/07/01 06:46:27;;;;;;;28.98;20.67;;;17.40;97.00;;;;;;5094442;28;20020;-76
2022/07/01 06:48:54;;;;;;;27.40;20.67;;;17.40;97.00;;;;;;5092785;28;20044;-72
2022/07/01 06:51:19;;;;;;;28.95;20.08;;;17.40;96.80;;;;;;5092773;28;20055;-72
2022/07/01 06:53:46;;;;;;;32.78;21.70;;;17.30;97.00;;;;;;5092189;28;20495;-73
2022/07/01 06:56:13;;;;;;;28.75;19.80;;;17.40;97.30;;;;;;5092072;28;20028;-74
2022/07/01 06:58:39;;;;;;;28.02;18.75;;;17.40;97.40;;;;;;5092117;28;20039;-76
2022/07/01 07:01:05;;;;;;;26.67;19.33;;;17.50;97.40;;;;;;5093015;28;20024;-76
2022/07/01 07:03:32;;;;;;;28.90;18.65;;;17.50;97.00;;;;;;5092889;28;20046;-74
2022/07/01 07:06:01;;;;;;;29.13;19.10;;;17.50;96.60;;;;;;5093516;28;20048;-74
2022/07/01 07:08:28;;;;;;;26.45;18.70;;;17.40;96.50;;;;;;5093299;28;20023;-74
2022/07/01 07:10:53;;;;;;;23.30;17.95;;;17.40;96.60;;;;;;5094791;28;20454;-73
2022/07/01 07:13:19;;;;;;;28.25;19.17;;;17.40;96.80;;;;;;5093727;28;20107;-73
2022/07/01 07:15:45;;;;;;;26.35;19.63;;;17.50;96.80;;;;;;5093508;28;20031;-73
2022/07/01 07:18:11;;;;;;;28.38;19.98;;;17.50;96.90;;;;;;5093588;28;20393;-73
2022/07/01 07:20:37;;;;;;;28.92;20.42;;;17.70;96.80;;;;;;5093144;28;20020;-74
2022/07/01 07:23:02;;;;;;;29.73;20.00;;;17.70;96.50;;;;;;5093372;28;20028;-74
2022/07/01 07:25:28;;;;;;;29.13;20.05;;;17.80;96.20;;;;;;5093618;28;20093;-74
2022/07/01 07:27:54;;;;;;;26.65;18.23;;;17.90;95.90;;;;;;5093358;28;20016;-74
2022/07/01 07:30:20;;;;;;;30.90;19.98;;;17.90;95.60;;;;;;5093674;28;20117;-74
2022/07/01 07:32:46;;;;;;;25.65;17.75;;;17.90;95.30;;;;;;5093182;28;20028;-73
2022/07/01 07:35:12;;;;;;;23.80;17.13;;;17.90;95.70;;;;;;5093359;28;20036;-74
2022/07/01 07:37:38;;;;;;;24.88;18.60;;;18.00;95.70;;;;;;5091611;28;20352;-73
2022/07/01 07:40:09;;;;;;;27.30;18.77;;;18.00;95.10;;;;;;5091356;28;20089;-75
2022/07/01 07:42:36;;;;;;;25.38;16.85;;;18.10;95.30;;;;;;5092631;28;20070;-74
2022/07/01 07:45:02;;;;;;;25.50;17.52;;;18.20;95.50;;;;;;5093192;28;20031;-75
2022/07/01 07:47:28;;;;;;;23.48;17.45;;;18.30;95.40;;;;;;5093382;28;20074;-75
2022/07/01 07:49:54;;;;;;;25.13;18.10;;;18.40;95.10;;;;;;5092714;28;20480;-74
2022/07/01 07:52:19;;;;;;;23.13;17.45;;;18.40;95.00;;;;;;5093303;28;20028;-75
2022/07/01 07:54:45;;;;;;;22.98;16.05;;;18.40;94.80;;;;;;5093259;28;20039;-75
2022/07/01 07:57:11;;;;;;;21.85;16.58;;;18.40;94.60;;;;;;5093197;28;20018;-76
2022/07/01 07:59:37;;;;;;;26.25;14.25;;;18.50;94.40;;;;;;5093033;28;20105;-75
2022/07/01 08:02:03;;;;;;;18.98;14.35;;;18.60;94.30;;;;;;5093408;28;20056;-75
2022/07/01 08:04:28;;;;;;;21.10;15.13;;;18.50;94.00;;;;;;5092882;28;20047;-74
2022/07/01 08:06:54;;;;;;;21.17;14.60;;;18.50;94.10;;;;;;5092819;28;20024;-75
2022/07/01 08:09:19;;;;;;;17.23;12.85;;;18.40;93.90;;;;;;5093187;28;20020;-74
2022/07/01 08:11:45;;;;;;;17.63;13.50;;;18.40;94.10;;;;;;5093098;28;20027;-74
2022/07/01 08:14:11;;;;;;;20.02;12.48;;;18.60;94.10;;;;;;5093173;28;20032;-74
2022/07/01 08:16:37;;;;;;;17.55;10.68;;;18.60;93.90;;;;;;5092887;28;20459;-74
2022/07/01 08:19:02;;;;;;;18.20;11.55;;;18.70;93.70;;;;;;5092714;28;20367;-74
2022/07/01 08:21:29;;;;;;;16.52;11.70;;;18.80;93.70;;;;;;5093246;28;20028;-74
2022/07/01 08:23:55;;;;;;;14.80;10.02;;;18.80;93.80;;;;;;5092893;28;20031;-74
2022/07/01 08:26:20;;;;;;;16.33;10.45;;;19.00;94.10;;;;;;5092812;28;20027;-75
2022/07/01 08:28:46;;;;;;;17.45;8.98;;;19.10;93.30;;;;;;5092648;28;20024;-74
2022/07/01 08:31:12;;;;;;;15.80;8.50;;;19.10;93.10;;;;;;5092737;28;20099;-75
2022/07/01 08:33:39;;;;;;;15.38;6.60;;;19.10;93.30;;;;;;5095299;28;20032;-75
2022/07/01 08:36:06;;;;;;;12.27;6.50;;;19.10;92.70;;;;;;5096526;28;20039;-74
2022/07/01 08:38:32;;;;;;;9.77;5.28;;;19.20;92.80;;;;;;5104270;28;20024;-75
2022/07/01 08:40:58;;;;;;;12.30;4.90;;;19.30;92.70;;;;;;5116566;28;20072;-75
2022/07/01 08:43:23;;;;;;;9.13;4.03;;;19.50;93.00;;;;;;5101071;28;20017;-76
2022/07/01 08:45:51;;;;;;;6.97;2.97;;;19.60;92.20;;;;;;5088561;28;20032;-76
2022/07/01 08:48:18;;;;;;;7.13;2.95;;;19.80;91.60;;;;;;5095958;28;20494;-74
2022/07/01 08:50:43;;;;;;;6.03;3.53;;;19.80;90.70;;;;;;5095823;28;20043;-75
2022/07/01 08:53:11;;;;;;;6.30;3.00;;;19.80;90.60;;;;;;5096238;28;20107;-75
2022/07/01 08:58:22;;;;;;;7.18;2.13;;;19.70;90.70;;;;;;5096484;28;20070;-76
2022/07/01 09:00:48;;;;;;;7.30;1.77;;;19.60;89.90;;;;;;5095799;28;20424;-75
2022/07/01 09:03:14;;;;;;;9.30;2.65;;;19.60;89.80;;;;;;5096127;28;20054;-75
2022/07/01 09:05:49;;;;;;;7.78;2.20;;;19.60;90.00;;;;;;5095790;28;20020;-77
2022/07/01 09:08:14;;;;;;;7.13;2.03;;;19.60;90.00;;;;;;5101161;28;20099;-77
2022/07/01 09:10:40;;;;;;;6.53;2.25;;;19.70;89.30;;;;;;5094527;28;20474;-75
2022/07/01 09:13:07;;;;;;;4.68;1.20;;;19.70;89.50;;;;;;5094301;28;20051;-75
2022/07/01 09:15:34;;;;;;;3.78;1.20;;;19.90;90.00;;;;;;5091817;28;20463;-75
2022/07/01 09:18:17;;;;;;;7.13;1.20;;;20.10;88.90;;;;;;5094406;28;20447;-74
2022/07/01 09:20:45;;;;;;;3.13;1.30;;;20.20;86.00;;;;;;5092911;28;20369;-74
2022/07/01 09:23:13;;;;;;;7.18;1.50;;;20.10;85.20;;;;;;5093683;28;20032;-74
2022/07/01 09:25:50;;;;;;;5.38;1.20;;;20.20;86.00;;;;;;5093875;28;20063;-74
2022/07/01 09:28:24;;;;;;;4.45;1.33;;;20.10;84.50;;;;;;5093840;28;20024;-74
2022/07/01 09:30:52;;;;;;;6.70;1.10;;;20.10;85.40;;;;;;5091798;28;20024;-74
2022/07/01 09:33:24;;;;;;;3.83;1.00;;;20.30;85.40;;;;;;5093694;28;20024;-74
2022/07/01 09:35:50;;;;;;;4.95;0.73;;;20.40;84.20;;;;;;5094098;28;20052;-74
2022/07/01 09:38:19;;;;;;;3.72;1.05;;;20.50;83.40;;;;;;5093571;28;20028;-74
2022/07/01 09:40:56;;;;;;;4.00;0.90;;;20.60;83.50;;;;;;5092491;28;20032;-74
2022/07/01 09:43:35;;;;;;;6.22;0.52;;;20.80;83.90;;;;;;5093596;28;20082;-74
2022/07/01 09:46:09;;;;;;;5.03;0.90;;;20.90;82.70;;;;;;5094177;28;20438;-74
2022/07/01 09:48:35;;;;;;;5.65;1.65;;;21.10;82.60;;;;;;5092832;28;20032;-75
2022/07/01 09:51:02;;;;;;;4.68;0.70;;;21.00;80.90;;;;;;5093559;28;20049;-74
2022/07/01 09:53:28;;;;;;;1.65;0.45;;;21.10;82.00;;;;;;5093473;28;20040;-75
2022/07/01 09:55:53;;;;;;;3.47;0.60;;;21.10;80.90;;;;;;5093298;28;20028;-75
2022/07/01 09:58:19;;;;;;;3.95;0.73;;;21.00;78.60;;;;;;5093370;28;20475;-75
2022/07/01 10:00:46;;;;;;;3.03;0.73;;;20.90;78.00;;;;;;5093418;28;20115;-75
2022/07/01 10:03:12;;;;;;;4.55;0.65;;;20.90;79.10;;;;;;5093046;28;20031;-75
2022/07/01 10:05:47;;;;;;;5.10;0.77;;;21.00;78.70;;;;;;5092958;28;20032;-74
2022/07/01 10:08:31;;;;;;;6.00;0.63;;;21.00;79.30;;;;;;5093456;28;20093;-74
2022/07/01 10:11:34;;;;;;;4.00;0.70;;;21.10;78.80;;;;;;5092857;28;20375;-74
2022/07/01 10:14:07;;;;;;;2.92;0.50;;;21.10;77.60;;;;;;5092384;28;20035;-74
2022/07/01 10:16:33;;;;;;;3.72;0.50;;;21.00;77.90;;;;;;5092762;28;20078;-73
2022/07/01 10:19:05;;;;;;;2.85;0.75;;;20.90;77.10;;;;;;5093027;28;20502;-76
2022/07/01 10:21:31;;;;;;;4.03;0.40;;;20.80;76.90;;;;;;5092585;28;20029;-78
2022/07/01 10:24:17;;;;;;;3.17;0.68;;;20.80;76.40;;;;;;5092842;28;20467;-78
2022/07/01 10:26:43;;;;;;;3.97;0.93;;;20.90;77.00;;;;;;5092795;28;20532;-80
2022/07/01 10:29:32;;;;;;;2.47;0.40;;;21.20;77.80;;;;;;5092725;28;20028;-75
2022/07/01 10:32:08;;;;;;;2.25;0.38;;;21.30;74.60;;;;;;5092904;28;20028;-75
2022/07/01 10:34:35;;;;;;;2.97;0.30;;;21.30;74.10;;;;;;5093224;28;20058;-75
2022/07/01 10:37:06;;;;;;;1.95;0.30;;;21.30;73.20;;;;;;5092226;28;20031;-75
2022/07/01 10:39:59;;;;;;;2.65;0.50;;;21.30;72.70;;;;;;5092712;28;20475;-75
2022/07/01 10:42:54;;;;;;;2.53;0.60;;;21.30;73.30;;;;;;5092776;28;20024;-75
2022/07/01 10:45:20;;;;;;;3.80;0.57;;;21.40;74.00;;;;;;5092614;28;20058;-75
2022/07/01 10:47:45;;;;;;;2.95;0.50;;;21.60;75.60;;;;;;5082313;28;20030;-75
2022/07/01 10:50:15;;;;;;;2.15;0.60;;;21.80;73.40;;;;;;5092340;28;20035;-75
2022/07/01 10:52:59;;;;;;;4.28;0.40;;;22.00;72.90;;;;;;5092672;28;20047;-75
2022/07/01 10:55:39;;;;;;;1.67;0.40;;;22.20;72.10;;;;;;5091789;28;20429;-75
2022/07/01 10:58:05;;;;;;;5.55;0.50;;;22.30;70.80;;;;;;5092352;28;20028;-75
2022/07/01 11:00:34;;;;;;;5.85;0.40;;;22.30;70.80;;;;;;5091994;28;20024;-75
2022/07/01 11:03:33;;;;;;;3.83;0.55;;;22.30;72.60;;;;;;5091646;28;20030;-76
2022/07/01 11:05:59;;;;;;;3.80;0.30;;;22.50;69.50;;;;;;5080957;28;20059;-75
2022/07/01 11:08:25;;;;;;;2.40;0.30;;;22.50;68.10;;;;;;5092092;28;20471;-75
2022/07/01 11:10:54;;;;;;;3.80;0.38;;;22.50;67.60;;;;;;5081341;28;20030;-75
2022/07/01 11:13:20;;;;;;;1.85;0.20;;;22.40;68.10;;;;;;5091392;28;20023;-76
2022/07/01 11:15:47;;;;;;;2.92;0.40;;;22.20;66.80;;;;;;5091900;28;20027;-76
2022/07/01 11:18:14;;;;;;;2.60;0.30;;;22.10;67.20;;;;;;5092124;28;20031;-76
2022/07/01 11:20:40;;;;;;;2.25;0.38;;;22.20;68.20;;;;;;5092335;28;20055;-76
2022/07/01 11:23:06;;;;;;;5.72;0.40;;;22.30;69.70;;;;;;5091797;28;20499;-77
2022/07/01 11:25:31;;;;;;;3.53;0.30;;;22.50;68.80;;;;;;5092262;28;20073;-77
2022/07/01 11:27:57;;;;;;;4.20;0.40;;;22.50;67.00;;;;;;5091401;28;20472;-77
2022/07/01 11:30:23;;;;;;;3.78;0.60;;;22.50;65.70;;;;;;5091902;28;20028;-77
2022/07/01 11:32:52;;;;;;;2.65;0.40;;;22.30;66.80;;;;;;5091580;28;20038;-76
2022/07/01 11:41:06;;;;;;;4.43;0.40;;;21.90;67.70;;;;;;5091803;28;20502;-76
2022/07/01 11:43:34;;;;;;;2.72;0.40;;;21.90;68.60;;;;;;5091602;28;20020;-76
2022/07/01 11:46:01;;;;;;;3.10;0.40;;;22.10;68.00;;;;;;5091477;28;20028;-76
2022/07/01 11:48:32;;;;;;;1.58;0.30;;;22.10;66.40;;;;;;5091253;28;20110;-75
2022/07/01 11:50:58;;;;;;;2.63;0.20;;;22.20;66.90;;;;;;5092649;28;20058;-76
2022/07/01 11:53:24;;;;;;;4.05;0.38;;;22.30;66.70;;;;;;5092002;28;20089;-76
2022/07/01 11:55:50;;;;;;;2.08;0.45;;;22.20;67.20;;;;;;5092043;28;20043;-76
2022/07/01 11:58:16;;;;;;;3.78;0.65;;;22.20;67.70;;;;;;5091901;28;20028;-77
2022/07/01 12:00:41;;;;;;;1.63;0.30;;;22.10;66.10;;;;;;5091853;28;20025;-76
2022/07/01 12:03:07;;;;;;;3.15;0.30;;;22.00;66.50;;;;;;5091960;28;20055;-76
2022/07/01 12:05:34;;;;;;;2.15;0.20;;;22.10;66.20;;;;;;5091785;28;20113;-77
2022/07/01 12:08:00;;;;;;;3.38;0.38;;;22.30;66.20;;;;;;5093312;28;20035;-77
2022/07/01 12:10:26;;;;;;;2.17;0.40;;;22.50;65.50;;;;;;5095624;28;20024;-76
2022/07/01 12:12:52;;;;;;;3.90;0.30;;;22.60;66.30;;;;;;5095118;28;20493;-76
2022/07/01 12:15:20;;;;;;;3.63;0.20;;;22.80;64.80;;;;;;5095902;28;20039;-76
2022/07/01 12:17:46;;;;;;;5.00;0.50;;;22.80;64.60;;;;;;5093361;28;20050;-76
2022/07/01 12:20:11;;;;;;;1.67;0.20;;;22.90;64.10;;;;;;5095556;28;20032;-76
2022/07/01 12:22:37;;;;;;;2.70;0.40;;;23.00;63.70;;;;;;5095099;28;20073;-77
2022/07/01 12:25:11;;;;;;;2.15;0.20;;;23.00;61.80;;;;;;5094936;28;20020;-77
2022/07/01 12:27:38;;;;;;;2.50;0.30;;;22.80;62.10;;;;;;5095486;28;20028;-75
2022/07/01 12:30:05;;;;;;;3.63;0.70;;;22.80;62.90;;;;;;5095556;28;20039;-75
2022/07/01 12:32:35;;;;;;;1.65;0.30;;;22.80;64.10;;;;;;5092682;28;20379;-75
2022/07/01 12:35:04;;;;;;;4.78;0.73;;;22.80;62.60;;;;;;5095465;28;20086;-75
2022/07/01 12:37:32;;;;;;;3.00;0.30;;;22.80;63.20;;;;;;5095387;28;20030;-75
2022/07/01 12:40:04;;;;;;;2.63;0.20;;;22.90;63.60;;;;;;5094999;28;20032;-75
2022/07/01 12:42:41;;;;;;;2.67;0.40;;;23.10;62.00;;;;;;5094924;28;20031;-77
2022/07/01 12:45:09;;;;;;;1.40;0.22;;;23.10;61.70;;;;;;5094298;28;20077;-76
2022/07/01 12:47:43;;;;;;;4.18;0.35;;;23.30;62.10;;;;;;5096300;28;20100;-78
2022/07/01 12:50:26;;;;;;;5.70;0.47;;;23.40;62.10;;;;;;5108011;28;20063;-77
2022/07/01 12:53:04;;;;;;;3.25;0.22;;;23.50;60.70;;;;;;5108386;28;20024;-77